createdAt,value
2019-05-09T00:02:41.216Z,0.53
2019-05-09T00:05:28.514Z,0.50
2019-05-09T00:08:15.536Z,0.47
2019-05-09T00:11:03.711Z,0.40
2019-05-09T00:13:50.637Z,0.57
2019-05-09T00:16:37.735Z,0.50
2019-05-09T00:19:24.905Z,0.77
2019-05-09T00:22:13.633Z,0.60
2019-05-09T00:25:00.531Z,0.50
2019-05-09T00:27:47.516Z,0.63
2019-05-09T00:30:54.112Z,0.53
2019-05-09T00:33:44.419Z,0.53
2019-05-09T00:36:33.443Z,0.60
2019-05-09T00:39:20.775Z,0.57
2019-05-09T00:42:07.944Z,0.70
2019-05-09T00:44:56.661Z,0.50
2019-05-09T00:47:43.661Z,0.40
2019-05-09T00:50:30.861Z,0.60
2019-05-09T00:53:18.092Z,0.60
2019-05-09T00:56:05.443Z,0.40
2019-05-09T00:58:53.478Z,0.60
2019-05-09T01:01:40.713Z,0.47
2019-05-09T01:04:27.436Z,0.37
2019-05-09T01:07:14.635Z,0.70
2019-05-09T01:10:04.062Z,0.60
2019-05-09T01:12:50.310Z,0.50
2019-05-09T01:15:37.426Z,0.50
2019-05-09T01:18:24.398Z,0.50
2019-05-09T01:21:13.448Z,0.50
2019-05-09T01:24:00.137Z,0.67
2019-05-09T01:26:47.100Z,0.70
2019-05-09T01:29:34.204Z,0.50
2019-05-09T01:32:29.149Z,0.60
2019-05-09T01:35:16.229Z,0.60
2019-05-09T01:38:03.707Z,0.47
2019-05-09T01:40:53.283Z,0.67
2019-05-09T01:43:40.025Z,0.67
2019-05-09T01:46:26.996Z,0.67
2019-05-09T01:49:14.408Z,0.43
2019-05-09T01:52:03.320Z,0.70
2019-05-09T01:54:50.877Z,0.70
2019-05-09T01:57:38.039Z,0.90
2019-05-09T02:00:25.294Z,0.60
2019-05-09T02:03:13.959Z,0.60
2019-05-09T02:06:03.259Z,0.50
2019-05-09T02:08:50.056Z,0.70
2019-05-09T02:11:42.472Z,0.80
2019-05-09T02:14:44.298Z,0.50
2019-05-09T02:17:38.570Z,0.67
2019-05-09T02:20:25.816Z,1.77
2019-05-09T02:23:13.972Z,0.60
2019-05-09T02:26:01.032Z,0.60
2019-05-09T02:28:48.126Z,0.83
2019-05-09T02:31:35.561Z,0.50
2019-05-09T02:34:24.814Z,0.80
2019-05-09T02:37:11.431Z,0.70
2019-05-09T02:39:59.100Z,0.90
2019-05-09T02:42:48.963Z,1.07
2019-05-09T02:45:38.972Z,0.70
2019-05-09T02:48:25.407Z,0.60
2019-05-09T02:51:12.392Z,0.57
2019-05-09T02:53:59.143Z,0.90
2019-05-09T02:56:48.996Z,0.73
2019-05-09T02:59:42.290Z,0.80
2019-05-09T03:02:40.155Z,0.73
2019-05-09T03:05:29.601Z,0.80
2019-05-09T03:08:18.978Z,0.87
2019-05-09T03:11:04.907Z,0.80
2019-05-09T03:13:51.767Z,0.50
2019-05-09T03:16:40.027Z,0.70
2019-05-09T03:19:29.650Z,0.80
2019-05-09T03:22:18.781Z,0.90
2019-05-09T03:25:09.056Z,0.80
2019-05-09T03:28:09.899Z,0.80
2019-05-09T03:30:59.422Z,0.70
2019-05-09T03:33:49.778Z,0.90
2019-05-09T03:36:35.385Z,1.00
2019-05-09T03:39:22.568Z,1.00
2019-05-09T03:42:09.676Z,1.07
2019-05-09T03:44:58.110Z,1.10
2019-05-09T03:47:50.325Z,1.03
2019-05-09T03:50:38.285Z,0.90
2019-05-09T03:53:25.093Z,0.60
2019-05-09T03:56:14.147Z,0.80
2019-05-09T03:59:01.315Z,0.90
2019-05-09T04:01:50.279Z,0.80
2019-05-09T04:04:38.358Z,0.93
2019-05-09T04:07:27.977Z,0.77
2019-05-09T04:10:14.642Z,0.87
2019-05-09T04:13:01.339Z,0.93
2019-05-09T04:15:48.417Z,0.60
2019-05-09T04:18:35.366Z,0.80
2019-05-09T04:21:22.620Z,0.67
2019-05-09T04:24:10.259Z,0.60
2019-05-09T04:26:59.071Z,0.50
2019-05-09T04:29:48.270Z,0.80
2019-05-09T04:32:35.039Z,0.90
2019-05-09T04:35:22.156Z,0.80
2019-05-09T04:38:09.153Z,0.73
2019-05-09T04:40:58.208Z,0.70
2019-05-09T04:43:45.256Z,0.63
2019-05-09T04:46:32.531Z,0.90
2019-05-09T04:49:19.473Z,0.90
2019-05-09T04:52:07.649Z,0.90
2019-05-09T04:54:57.461Z,0.90
2019-05-09T04:57:43.585Z,0.70
2019-05-09T05:00:37.646Z,1.03
2019-05-09T05:03:23.870Z,0.80
2019-05-09T05:06:10.865Z,0.90
2019-05-09T05:08:58.700Z,0.80
2019-05-09T05:11:47.135Z,1.27
2019-05-09T05:14:34.321Z,1.13
2019-05-09T05:17:21.309Z,1.00
2019-05-09T05:20:12.025Z,0.60
2019-05-09T05:23:00.448Z,1.10
2019-05-09T05:25:47.687Z,1.07
2019-05-09T05:28:34.894Z,1.00
2019-05-09T05:31:22.209Z,0.80
2019-05-09T05:34:11.109Z,0.80
2019-05-09T05:36:58.315Z,0.70
2019-05-09T05:39:45.231Z,0.60
2019-05-09T05:42:32.011Z,0.80
2019-05-09T05:45:19.273Z,0.70
2019-05-09T05:48:08.269Z,0.70
2019-05-09T05:50:55.140Z,0.90
2019-05-09T05:53:42.381Z,0.80
2019-05-09T05:56:29.617Z,1.00
2019-05-09T05:59:17.979Z,0.60
2019-05-09T06:02:05.275Z,0.90
2019-05-09T06:04:52.437Z,0.80
2019-05-09T06:07:39.640Z,0.80
2019-05-09T06:10:28.977Z,0.70
2019-05-09T06:13:15.772Z,1.00
2019-05-09T06:16:02.814Z,0.90
2019-05-09T06:18:49.787Z,0.70
2019-05-09T06:21:37.556Z,0.40
2019-05-09T06:24:24.612Z,0.70
2019-05-09T06:27:11.880Z,0.50
2019-05-09T06:29:59.089Z,0.60
2019-05-09T06:32:47.746Z,0.70
2019-05-09T06:35:37.743Z,0.70
2019-05-09T06:38:23.741Z,0.63
2019-05-09T06:41:12.214Z,0.50
2019-05-09T06:44:13.256Z,0.60
2019-05-09T06:46:54.147Z,0.60
2019-05-09T06:49:42.779Z,0.60
2019-05-09T06:52:30.094Z,0.60
2019-05-09T06:55:17.473Z,0.80
2019-05-09T06:58:22.659Z,0.80
2019-05-09T07:01:18.236Z,0.73
2019-05-09T07:04:21.794Z,0.50
2019-05-09T07:07:22.278Z,0.50
2019-05-09T07:10:09.875Z,1.00
2019-05-09T07:12:58.488Z,0.40
2019-05-09T07:15:45.681Z,0.60
2019-05-09T07:18:32.708Z,0.53
2019-05-09T07:21:19.404Z,0.57
2019-05-09T07:24:07.937Z,0.50
2019-05-09T07:26:55.297Z,0.50
2019-05-09T07:29:42.019Z,0.70
2019-05-09T07:32:33.269Z,0.63
2019-05-09T07:35:20.606Z,0.40
2019-05-09T07:38:08.465Z,0.67
2019-05-09T07:40:57.938Z,0.50
2019-05-09T07:43:44.194Z,0.70
2019-05-09T07:46:32.062Z,0.70
2019-05-09T07:49:19.300Z,0.70
2019-05-09T07:52:10.124Z,0.40
2019-05-09T07:54:54.977Z,0.50
2019-05-09T07:57:46.624Z,0.80
2019-05-09T08:00:33.704Z,0.60
2019-05-09T08:03:21.012Z,0.60
2019-05-09T08:06:08.790Z,1.00
2019-05-09T08:08:58.190Z,1.10
2019-05-09T08:11:44.922Z,0.70
2019-05-09T08:14:31.903Z,1.03
2019-05-09T08:17:18.743Z,0.80
2019-05-09T08:20:07.950Z,0.60
2019-05-09T08:22:58.683Z,0.60
2019-05-09T08:25:44.045Z,0.70
2019-05-09T08:28:31.141Z,0.83
2019-05-09T08:31:18.022Z,0.80
2019-05-09T08:34:05.180Z,1.87
2019-05-09T08:36:52.206Z,1.00
2019-05-09T08:39:39.253Z,0.80
2019-05-09T08:42:26.579Z,1.17
2019-05-09T08:45:26.923Z,1.00
2019-05-09T08:48:02.557Z,0.60
2019-05-09T08:50:51.247Z,0.70
2019-05-09T08:53:38.345Z,0.90
2019-05-09T08:56:25.371Z,0.60
2019-05-09T08:59:12.574Z,0.73
2019-05-09T09:02:19.502Z,0.43
2019-05-09T09:04:49.162Z,0.63
2019-05-09T09:07:37.921Z,0.40
2019-05-09T09:10:25.431Z,0.37
2019-05-09T09:13:12.351Z,0.80
2019-05-09T09:16:14.397Z,0.60
2019-05-09T09:18:48.322Z,0.50
2019-05-09T09:21:35.475Z,0.40
2019-05-09T09:24:22.747Z,0.40
2019-05-09T09:27:09.489Z,0.20
2019-05-09T09:29:58.685Z,0.47
2019-05-09T09:32:47.733Z,0.60
2019-05-09T09:35:33.875Z,0.60
2019-05-09T09:38:21.668Z,0.42
2019-05-09T09:41:09.295Z,0.40
2019-05-09T09:43:59.000Z,0.60
2019-05-09T09:46:47.819Z,0.30
2019-05-09T09:49:38.165Z,0.50
2019-05-09T09:52:24.343Z,0.33
2019-05-09T09:55:12.921Z,0.40
2019-05-09T09:58:00.381Z,0.37
2019-05-09T10:00:52.402Z,0.40
2019-05-09T10:03:40.188Z,0.50
2019-05-09T10:06:28.465Z,0.57
2019-05-09T10:09:17.516Z,0.33
2019-05-09T10:12:05.291Z,0.53
2019-05-09T10:15:00.779Z,0.40
2019-05-09T10:18:02.212Z,0.70
2019-05-09T10:20:51.344Z,0.60
2019-05-09T10:23:39.443Z,0.80
2019-05-09T10:26:28.345Z,0.78
2019-05-09T10:29:17.736Z,0.30
2019-05-09T10:32:13.166Z,0.55
2019-05-09T11:44:58.012Z,0.80
2019-05-09T11:47:46.654Z,0.53
2019-05-09T11:50:33.798Z,0.30
2019-05-09T11:53:21.289Z,0.67
2019-05-09T11:56:08.421Z,0.57
2019-05-09T11:58:57.720Z,0.47
2019-05-09T12:01:44.019Z,0.60
2019-05-09T12:04:31.007Z,2.70
2019-05-09T12:07:18.266Z,0.60
2019-05-09T12:10:07.845Z,0.85
2019-05-09T12:12:57.641Z,0.68
2019-05-09T12:15:45.050Z,0.60
2019-05-09T12:18:32.561Z,0.40
2019-05-09T12:21:20.251Z,0.55
2019-05-09T12:24:09.086Z,0.50
2019-05-09T12:26:57.655Z,0.50
2019-05-09T12:29:48.337Z,0.40
2019-05-09T12:32:34.966Z,0.60
2019-05-09T12:35:22.593Z,0.50
2019-05-09T12:38:10.225Z,0.50
2019-05-09T12:41:00.566Z,0.50
2019-05-09T12:43:47.040Z,0.55
2019-05-09T12:46:34.597Z,0.50
2019-05-09T13:33:58.297Z,0.37
2019-05-09T13:36:48.331Z,0.40
2019-05-09T13:39:34.869Z,0.55
2019-05-09T13:42:22.101Z,0.98
2019-05-09T13:45:09.916Z,0.60
2019-05-09T13:47:57.906Z,0.60
2019-05-09T13:50:45.385Z,0.63
2019-05-09T13:53:32.381Z,0.63
2019-05-09T13:56:19.888Z,0.57
2019-05-09T13:59:08.261Z,0.70
2019-05-09T14:01:55.555Z,0.60
2019-05-09T14:04:42.767Z,0.70
2019-05-09T14:07:30.056Z,0.97
2019-05-09T14:10:17.852Z,0.60
2019-05-09T14:13:10.007Z,0.70
2019-05-09T14:15:53.851Z,1.00
2019-05-09T14:18:41.041Z,0.60
2019-05-09T14:21:29.824Z,0.53
2019-05-09T14:24:19.200Z,0.67
2019-05-09T14:27:05.554Z,0.80
2019-05-09T14:29:52.892Z,1.00
2019-05-09T14:32:40.388Z,1.03
2019-05-09T14:35:28.030Z,0.90
2019-05-09T14:38:15.032Z,1.00
2019-05-09T14:41:02.057Z,0.90
2019-05-09T14:43:49.221Z,1.13
2019-05-09T14:46:38.974Z,1.40
2019-05-09T14:49:39.407Z,1.20
2019-05-09T14:52:13.654Z,1.17
2019-05-09T14:55:00.914Z,1.53
2019-05-09T14:57:48.225Z,1.10
2019-05-09T15:00:35.031Z,0.90
2019-05-09T15:03:22.080Z,1.10
2019-05-09T15:06:09.359Z,1.20
2019-05-09T15:08:58.146Z,1.10
2019-05-09T15:11:48.142Z,0.80
2019-05-09T15:14:34.235Z,1.10
2019-05-09T15:17:21.023Z,0.57
2019-05-09T15:20:09.093Z,0.80
2019-05-09T15:22:58.647Z,0.80
2019-05-09T15:25:44.696Z,0.83
2019-05-09T15:28:32.118Z,0.60
2019-05-09T15:31:19.495Z,0.70
2019-05-09T15:34:09.973Z,0.77
2019-05-09T15:36:54.959Z,0.57
2019-05-09T15:39:42.171Z,0.73
2019-05-09T15:42:30.584Z,0.80
2019-05-09T15:45:18.565Z,0.80
2019-05-09T15:48:07.704Z,1.10
2019-05-09T15:50:54.584Z,1.20
2019-05-09T15:53:41.900Z,0.93
2019-05-09T15:56:28.888Z,0.50
2019-05-09T15:59:18.274Z,1.00
2019-05-09T16:02:05.675Z,0.80
2019-05-09T16:04:52.479Z,1.13
2019-05-09T16:07:39.620Z,0.97
2019-05-09T16:10:28.338Z,1.13
2019-05-09T16:13:17.725Z,1.07
2019-05-09T16:16:04.326Z,0.80
2019-05-09T16:18:51.430Z,1.10
2019-05-09T16:21:38.914Z,1.10
2019-05-09T16:24:28.019Z,0.53
2019-05-09T16:27:14.565Z,0.90
2019-05-09T16:30:01.614Z,0.60
2019-05-09T16:32:48.294Z,0.93
2019-05-09T16:35:37.930Z,0.80
2019-05-09T16:38:24.077Z,0.97
2019-05-09T16:41:11.131Z,1.20
2019-05-09T16:43:58.460Z,0.90
2019-05-09T16:46:48.166Z,1.03
2019-05-09T16:49:34.304Z,1.20
2019-05-09T16:52:21.631Z,1.07
2019-05-09T16:55:10.877Z,0.87
2019-05-09T16:57:58.423Z,0.90
2019-05-09T17:00:48.263Z,1.10
2019-05-09T17:03:35.661Z,1.10
2019-05-09T17:06:23.236Z,0.87
2019-05-09T17:09:12.374Z,0.60
2019-05-09T17:11:59.681Z,0.80
2019-05-09T17:14:46.934Z,0.80
2019-05-09T17:17:34.205Z,0.70
2019-05-09T17:20:28.576Z,0.80
2019-05-09T17:23:17.350Z,1.10
2019-05-09T17:26:04.711Z,0.90
2019-05-09T17:28:51.779Z,0.70
2019-05-09T17:31:39.190Z,1.23
2019-05-09T17:34:28.580Z,1.00
2019-05-09T17:37:17.561Z,1.10
2019-05-09T17:40:04.331Z,1.73
2019-05-09T17:42:51.691Z,1.73
2019-05-09T17:45:41.925Z,1.33
2019-05-09T17:48:28.689Z,1.57
2019-05-09T17:51:25.951Z,1.03
2019-05-09T17:54:04.851Z,0.97
2019-05-09T17:56:51.972Z,1.00
2019-05-09T17:59:39.386Z,1.00
2019-05-09T18:02:28.154Z,0.63
2019-05-09T18:05:15.651Z,0.80
2019-05-09T18:08:02.914Z,1.20
2019-05-09T18:10:50.290Z,1.03
2019-05-09T18:13:38.566Z,0.90
2019-05-09T18:16:28.489Z,1.00
2019-05-09T18:19:14.662Z,0.90
2019-05-09T18:22:01.811Z,0.93
2019-05-09T18:24:49.104Z,0.80
2019-05-09T18:27:37.853Z,0.97
2019-05-09T18:30:27.757Z,1.07
2019-05-09T18:33:21.391Z,1.40
2019-05-09T18:36:08.352Z,1.13
2019-05-09T18:38:55.877Z,1.10
2019-05-09T18:41:42.921Z,1.30
2019-05-09T18:44:29.996Z,1.30
2019-05-09T18:47:18.485Z,1.00
2019-05-09T18:50:09.686Z,1.57
2019-05-09T18:52:57.163Z,1.70
2019-05-09T18:55:44.734Z,1.70
2019-05-09T18:58:31.976Z,1.60
2019-05-09T19:01:18.701Z,2.00
2019-05-09T19:04:05.897Z,2.10
2019-05-09T19:06:52.910Z,2.53
2019-05-09T19:09:39.761Z,1.93
2019-05-09T19:12:27.131Z,2.00
2019-05-09T19:15:19.216Z,2.40
2019-05-09T19:18:13.219Z,2.47
2019-05-09T19:21:14.303Z,2.87
2019-05-09T19:24:01.193Z,2.30
2019-05-09T19:26:48.441Z,2.00
2019-05-09T19:29:35.938Z,1.90
2019-05-09T19:32:23.309Z,1.60
2019-05-09T19:35:11.130Z,1.30
2019-05-09T19:37:58.508Z,1.30
2019-05-09T19:40:45.894Z,1.20
2019-05-09T19:43:32.906Z,1.10
2019-05-09T19:46:20.327Z,1.03
2019-05-09T19:49:07.800Z,1.13
2019-05-09T19:51:55.246Z,1.03
2019-05-09T19:54:42.471Z,1.30
2019-05-09T19:57:29.943Z,1.40
2019-05-09T20:00:17.674Z,2.00
2019-05-09T20:03:04.625Z,1.60
2019-05-09T20:05:51.889Z,1.37
2019-05-09T20:08:38.917Z,1.40
2019-05-09T20:11:27.989Z,1.33
2019-05-09T20:14:19.765Z,1.20
2019-05-09T20:17:07.515Z,1.10
2019-05-09T20:19:55.203Z,1.13
2019-05-09T20:22:52.589Z,1.07
2019-05-09T20:25:31.249Z,1.13
2019-05-09T20:28:18.118Z,1.03
2019-05-09T20:31:05.528Z,1.03
2019-05-09T20:33:52.703Z,1.20
2019-05-09T20:36:39.909Z,1.27
2019-05-09T20:39:30.623Z,1.20
2019-05-09T20:42:16.318Z,1.30
2019-05-09T20:45:03.693Z,1.10
2019-05-09T20:47:50.603Z,1.00
2019-05-09T20:50:37.675Z,1.10
2019-05-09T20:53:24.790Z,1.10
2019-05-09T20:56:11.798Z,1.10
2019-05-09T20:58:59.255Z,1.10
2019-05-09T21:01:46.616Z,1.07
2019-05-09T21:04:33.775Z,1.10
2019-05-09T21:07:21.022Z,0.93
2019-05-09T21:10:08.922Z,1.03
2019-05-09T21:12:56.308Z,0.80
2019-05-09T21:15:43.960Z,0.80
2019-05-09T21:18:31.602Z,1.00
2019-05-09T21:21:19.074Z,0.93
2019-05-09T21:24:06.066Z,0.93
2019-05-09T21:26:53.468Z,0.87
2019-05-09T21:29:40.458Z,0.90
2019-05-09T21:32:27.529Z,1.10
2019-05-09T21:35:15.170Z,1.13
2019-05-09T21:38:02.366Z,0.87
2019-05-09T21:40:49.231Z,1.00
2019-05-09T21:43:35.993Z,0.97
2019-05-09T21:46:22.685Z,1.00
2019-05-09T21:49:10.176Z,1.20
2019-05-09T21:51:57.122Z,0.90
2019-05-09T21:54:44.445Z,1.67
2019-05-09T21:57:31.806Z,1.00
2019-05-09T22:00:26.661Z,1.37
2019-05-09T22:03:13.705Z,1.27
2019-05-09T22:06:00.783Z,1.10
2019-05-09T22:08:48.085Z,0.90
2019-05-09T22:11:35.373Z,1.10
2019-05-09T22:14:22.625Z,1.10
2019-05-09T22:17:27.655Z,0.90
2019-05-09T22:20:15.658Z,0.80
2019-05-09T22:23:06.287Z,0.90
2019-05-09T22:25:51.466Z,0.83
2019-05-09T22:28:38.269Z,0.70
2019-05-09T22:31:25.510Z,1.00
2019-05-09T22:34:12.667Z,1.03
2019-05-09T22:36:59.949Z,0.80
2019-05-09T22:39:46.964Z,0.97
2019-05-09T22:42:34.420Z,0.73
2019-05-09T22:45:21.876Z,0.80
2019-05-09T22:48:08.613Z,1.00
2019-05-09T22:50:55.628Z,1.00
2019-05-09T22:53:42.653Z,1.10
2019-05-09T22:56:29.685Z,1.30
2019-05-09T22:59:16.754Z,1.40
2019-05-09T23:02:07.082Z,1.20
2019-05-09T23:04:52.531Z,1.13
2019-05-09T23:07:39.788Z,1.13
2019-05-09T23:10:27.148Z,1.00
2019-05-09T23:13:14.361Z,1.10
2019-05-09T23:16:01.694Z,1.10
2019-05-09T23:18:48.815Z,1.13
2019-05-09T23:21:36.134Z,1.03
2019-05-09T23:24:28.532Z,1.00
2019-05-09T23:27:17.779Z,1.00
2019-05-09T23:30:06.999Z,1.30
2019-05-09T23:32:54.038Z,1.23
2019-05-09T23:35:41.358Z,1.50
2019-05-09T23:38:28.398Z,1.30
2019-05-09T23:41:15.842Z,1.20
2019-05-09T23:44:03.236Z,1.10
2019-05-09T23:46:50.438Z,1.10
2019-05-09T23:49:37.859Z,1.17
2019-05-09T23:52:24.865Z,1.40
2019-05-09T23:55:30.225Z,1.10
2019-05-09T23:58:34.723Z,1.30
